createdAt,value
2022-07-29T00:00:07.741Z,17.55
2022-07-29T00:02:53.056Z,17.51
2022-07-29T00:05:42.809Z,17.47
2022-07-29T00:08:35.530Z,17.42
2022-07-29T00:11:20.923Z,17.42
2022-07-29T00:14:06.750Z,17.41
2022-07-29T00:16:52.367Z,17.41
2022-07-29T00:19:37.710Z,17.40
2022-07-29T00:22:23.302Z,17.38
2022-07-29T00:25:08.988Z,17.34
2022-07-29T00:27:54.201Z,17.33
2022-07-29T00:30:39.576Z,17.33
2022-07-29T00:33:25.213Z,17.24
2022-07-29T00:36:10.387Z,17.24
2022-07-29T00:38:55.530Z,17.19
2022-07-29T00:41:41.056Z,17.17
2022-07-29T00:44:26.612Z,17.12
2022-07-29T00:47:12.599Z,17.09
2022-07-29T00:49:57.725Z,17.10
2022-07-29T00:52:43.683Z,17.09
2022-07-29T00:55:30.492Z,17.09
2022-07-29T00:58:16.027Z,17.09
2022-07-29T01:01:01.941Z,17.05
2022-07-29T01:03:47.503Z,17.01
2022-07-29T01:06:34.374Z,17.00
2022-07-29T01:09:43.000Z,16.96
2022-07-29T01:12:27.817Z,16.96
2022-07-29T01:15:13.619Z,16.95
2022-07-29T01:18:10.609Z,16.91
2022-07-29T01:21:24.771Z,16.90
2022-07-29T01:24:54.611Z,16.89
2022-07-29T01:27:52.471Z,16.88
2022-07-29T01:30:39.734Z,16.88
2022-07-29T01:33:46.174Z,16.87
2022-07-29T01:36:36.113Z,16.84
2022-07-29T01:39:31.211Z,16.82
2022-07-29T01:42:33.043Z,16.76
2022-07-29T01:45:22.757Z,16.71
2022-07-29T01:48:43.571Z,16.69
2022-07-29T01:51:36.781Z,16.64
2022-07-29T01:54:46.750Z,16.63
2022-07-29T01:57:34.802Z,16.58
2022-07-29T02:00:21.102Z,16.51
2022-07-29T02:03:12.203Z,16.47
2022-07-29T02:05:58.347Z,16.44
2022-07-29T02:08:45.301Z,16.45
2022-07-29T02:11:34.180Z,16.39
2022-07-29T02:14:22.145Z,16.37
2022-07-29T02:17:08.670Z,16.37
2022-07-29T02:20:00.098Z,16.35
2022-07-29T02:22:46.525Z,16.34
2022-07-29T02:25:36.998Z,16.36
2022-07-29T02:28:27.550Z,16.33
2022-07-29T02:31:14.745Z,16.32
2022-07-29T02:34:07.337Z,16.31
2022-07-29T02:36:53.479Z,16.30
2022-07-29T02:39:41.878Z,16.32
2022-07-29T02:42:28.825Z,16.31
2022-07-29T02:45:14.372Z,16.33
2022-07-29T02:48:01.748Z,16.32
2022-07-29T02:50:52.791Z,16.32
2022-07-29T02:53:40.030Z,16.31
2022-07-29T02:56:28.948Z,16.33
2022-07-29T02:59:19.022Z,16.34
2022-07-29T03:02:08.066Z,16.33
2022-07-29T03:04:56.383Z,16.34
2022-07-29T03:07:46.125Z,16.35
2022-07-29T03:10:34.106Z,16.36
2022-07-29T03:13:20.135Z,16.35
2022-07-29T03:16:07.039Z,16.37
2022-07-29T03:18:53.104Z,16.36
2022-07-29T03:21:38.411Z,16.40
2022-07-29T03:24:33.869Z,16.36
2022-07-29T03:27:19.342Z,16.35
2022-07-29T03:30:06.086Z,16.35
2022-07-29T03:32:54.403Z,16.34
2022-07-29T03:35:41.879Z,16.33
2022-07-29T03:38:30.059Z,16.31
2022-07-29T03:41:16.042Z,16.29
2022-07-29T03:44:02.859Z,16.29
2022-07-29T03:46:50.414Z,16.29
2022-07-29T03:49:38.704Z,16.31
2022-07-29T03:52:24.224Z,16.31
2022-07-29T03:55:10.235Z,16.32
2022-07-29T03:57:57.739Z,16.34
2022-07-29T04:00:44.014Z,16.38
2022-07-29T04:03:30.623Z,16.43
2022-07-29T04:06:15.929Z,16.49
2022-07-29T04:09:01.211Z,16.52
2022-07-29T04:12:03.420Z,16.56
2022-07-29T04:14:49.675Z,16.57
2022-07-29T04:17:35.467Z,16.63
2022-07-29T04:20:20.875Z,16.65
2022-07-29T04:23:05.997Z,16.65
2022-07-29T04:25:51.449Z,16.65
2022-07-29T04:28:36.516Z,16.66
2022-07-29T04:31:25.751Z,16.72
2022-07-29T04:34:12.350Z,16.78
2022-07-29T04:36:57.444Z,16.83
2022-07-29T04:39:43.213Z,16.82
2022-07-29T04:42:28.166Z,16.81
2022-07-29T04:45:15.214Z,16.86
2022-07-29T04:48:01.657Z,16.87
2022-07-29T04:50:47.029Z,16.93
2022-07-29T04:53:32.227Z,17.01
2022-07-29T04:56:17.277Z,17.09
2022-07-29T04:59:02.845Z,17.15
2022-07-29T05:01:43.784Z,17.16
2022-07-29T05:04:29.145Z,17.17
2022-07-29T05:07:15.135Z,17.24
2022-07-29T05:10:00.521Z,17.31
2022-07-29T05:12:45.809Z,17.37
2022-07-29T05:15:31.337Z,17.50
2022-07-29T05:18:16.682Z,17.67
2022-07-29T05:21:01.886Z,17.78
2022-07-29T05:23:46.964Z,17.76
2022-07-29T05:26:32.454Z,17.75
2022-07-29T05:29:44.566Z,17.76
2022-07-29T05:32:22.676Z,17.75
2022-07-29T05:35:08.480Z,17.77
2022-07-29T05:37:54.017Z,17.88
2022-07-29T05:40:39.267Z,17.94
2022-07-29T05:43:24.223Z,17.95
2022-07-29T05:46:10.115Z,17.96
2022-07-29T05:48:55.780Z,18.00
2022-07-29T05:51:41.105Z,17.99
2022-07-29T05:54:26.733Z,18.06
2022-07-29T05:57:19.643Z,18.11
2022-07-29T06:00:05.408Z,18.09
2022-07-29T06:02:57.781Z,18.21
2022-07-29T06:05:43.005Z,18.36
2022-07-29T06:08:28.319Z,18.58
2022-07-29T06:11:13.516Z,18.71
2022-07-29T06:13:58.870Z,18.91
2022-07-29T06:16:43.998Z,19.10
2022-07-29T06:19:29.740Z,19.24
2022-07-29T06:22:18.327Z,19.30
2022-07-29T06:25:04.570Z,19.25
2022-07-29T06:27:50.058Z,19.29
2022-07-29T06:30:35.467Z,19.21
2022-07-29T06:33:20.780Z,19.22
2022-07-29T06:36:06.814Z,19.32
2022-07-29T06:38:52.472Z,19.39
2022-07-29T06:41:39.144Z,19.39
2022-07-29T06:44:28.471Z,19.40
2022-07-29T06:47:13.676Z,19.48
2022-07-29T06:49:58.996Z,19.54
2022-07-29T06:52:44.825Z,19.58
2022-07-29T06:55:30.329Z,19.72
2022-07-29T06:58:18.805Z,19.83
2022-07-29T07:01:13.672Z,19.83
2022-07-29T07:03:59.243Z,19.84
2022-07-29T07:06:44.064Z,19.81
2022-07-29T07:09:40.044Z,20.15
2022-07-29T07:12:26.407Z,20.52
2022-07-29T07:15:11.691Z,20.49
2022-07-29T07:17:56.868Z,20.76
2022-07-29T07:20:42.746Z,20.73
2022-07-29T07:23:28.030Z,20.40
2022-07-29T07:26:13.228Z,20.41
2022-07-29T07:28:58.795Z,20.68
2022-07-29T07:31:46.670Z,20.65
2022-07-29T07:34:32.199Z,20.75
2022-07-29T07:37:18.111Z,21.04
2022-07-29T07:40:05.069Z,21.21
2022-07-29T07:42:50.732Z,21.44
2022-07-29T07:45:38.161Z,21.48
2022-07-29T07:48:24.053Z,21.67
2022-07-29T07:51:09.336Z,21.86
2022-07-29T07:53:54.687Z,21.86
2022-07-29T07:56:40.283Z,21.81
2022-07-29T07:59:25.776Z,21.87
2022-07-29T08:02:10.980Z,21.98
2022-07-29T08:04:56.499Z,22.28
2022-07-29T08:07:46.587Z,22.60
2022-07-29T08:10:50.625Z,22.72
2022-07-29T08:13:36.350Z,22.73
2022-07-29T08:16:21.871Z,22.65
2022-07-29T08:19:10.098Z,22.66
2022-07-29T08:21:56.710Z,22.33
2022-07-29T08:24:45.190Z,22.25
2022-07-29T08:27:43.412Z,22.33
2022-07-29T08:30:29.574Z,22.51
2022-07-29T08:33:14.943Z,22.67
2022-07-29T08:36:00.389Z,22.61
2022-07-29T08:38:46.394Z,22.60
2022-07-29T08:41:32.376Z,22.67
2022-07-29T08:44:29.620Z,22.85
2022-07-29T08:47:16.943Z,23.15
2022-07-29T08:50:02.156Z,22.96
2022-07-29T08:52:49.966Z,22.62
2022-07-29T08:55:35.961Z,22.48
2022-07-29T08:58:23.239Z,22.48
2022-07-29T09:01:12.848Z,22.45
2022-07-29T09:04:02.450Z,22.41
2022-07-29T09:06:51.124Z,22.49
2022-07-29T09:09:36.582Z,22.52
2022-07-29T09:12:29.602Z,22.81
2022-07-29T09:15:16.207Z,22.98
2022-07-29T09:18:03.038Z,23.17
2022-07-29T09:21:11.818Z,23.38
2022-07-29T09:24:14.182Z,23.72
2022-07-29T09:26:59.844Z,23.78
2022-07-29T09:29:45.318Z,24.07
2022-07-29T09:32:30.886Z,24.15
2022-07-29T09:35:22.783Z,24.00
2022-07-29T09:38:13.665Z,24.03
2022-07-29T09:41:05.473Z,23.80
2022-07-29T09:43:59.633Z,23.83
2022-07-29T09:47:08.687Z,23.87
2022-07-29T09:50:00.707Z,23.84
2022-07-29T09:52:48.976Z,24.06
2022-07-29T09:55:46.494Z,24.23
2022-07-29T09:58:34.538Z,24.38
2022-07-29T10:01:29.201Z,24.54
2022-07-29T10:04:14.703Z,24.67
2022-07-29T10:07:04.651Z,24.87
2022-07-29T10:09:55.706Z,24.66
2022-07-29T10:13:06.385Z,25.05
2022-07-29T10:15:54.059Z,25.12
2022-07-29T10:18:40.516Z,25.23
2022-07-29T10:21:35.365Z,24.75
2022-07-29T10:24:21.959Z,24.77
2022-07-29T10:27:08.945Z,24.70
2022-07-29T10:29:57.370Z,24.68
2022-07-29T10:33:12.368Z,24.64
2022-07-29T10:36:16.454Z,24.95
2022-07-29T10:39:18.777Z,25.19
2022-07-29T10:42:29.860Z,25.61
2022-07-29T10:45:20.614Z,25.64
2022-07-29T10:48:07.999Z,25.56
2022-07-29T10:51:04.968Z,25.84
2022-07-29T10:53:54.016Z,25.83
2022-07-29T10:56:41.203Z,25.80
2022-07-29T10:59:40.477Z,25.86
2022-07-29T11:02:55.993Z,25.95
2022-07-29T11:06:01.926Z,26.25
2022-07-29T11:09:16.622Z,26.38
2022-07-29T11:12:02.962Z,25.80
2022-07-29T11:15:00.241Z,25.87
2022-07-29T11:17:54.705Z,26.06
2022-07-29T11:20:42.999Z,26.05
2022-07-29T11:23:36.497Z,26.09
2022-07-29T11:26:23.939Z,26.00
2022-07-29T11:29:23.320Z,26.13
2022-07-29T11:32:18.377Z,26.20
2022-07-29T11:35:17.800Z,26.04
2022-07-29T11:38:31.867Z,25.99
2022-07-29T11:45:41.850Z,26.04
2022-07-29T11:48:29.126Z,26.04
2022-07-29T11:51:17.145Z,26.12
2022-07-29T11:54:04.468Z,26.02
2022-07-29T11:56:52.728Z,26.07
2022-07-29T11:59:45.130Z,26.17
2022-07-29T12:02:48.336Z,26.18
2022-07-29T12:05:47.937Z,26.14
2022-07-29T12:07:01.818Z,26.20
2022-07-29T12:08:43.517Z,26.24
2022-07-29T12:11:29.539Z,26.39
2022-07-29T12:14:32.228Z,26.26
2022-07-29T12:17:27.167Z,26.29
2022-07-29T12:20:28.046Z,26.43
2022-07-29T12:23:17.322Z,26.43
2022-07-29T12:26:10.528Z,26.54
2022-07-29T12:28:56.738Z,26.74
2022-07-29T12:31:45.324Z,26.80
2022-07-29T12:34:31.916Z,26.33
2022-07-29T12:37:17.735Z,26.18
2022-07-29T12:40:05.222Z,26.36
2022-07-29T12:43:14.042Z,26.43
2022-07-29T12:46:14.729Z,26.45
2022-07-29T12:49:04.111Z,26.49
2022-07-29T12:51:53.235Z,26.58
2022-07-29T12:54:48.289Z,26.60
2022-07-29T12:57:47.708Z,26.68
2022-07-29T13:00:40.302Z,26.51
2022-07-29T13:03:42.285Z,26.65
2022-07-29T13:06:49.685Z,26.72
2022-07-29T13:09:42.159Z,26.76
2022-07-29T13:12:27.461Z,26.80
2022-07-29T13:15:21.745Z,26.93
2022-07-29T13:18:30.918Z,27.06
2022-07-29T13:21:18.809Z,26.90
2022-07-29T13:24:09.675Z,26.83
2022-07-29T13:26:55.188Z,26.76
2022-07-29T13:29:41.349Z,26.84
2022-07-29T13:32:29.122Z,26.88
2022-07-29T13:35:14.666Z,26.81
2022-07-29T13:37:59.943Z,26.82
2022-07-29T13:40:45.796Z,26.82
2022-07-29T13:43:31.222Z,27.01
2022-07-29T13:46:16.925Z,27.01
2022-07-29T13:49:02.273Z,26.84
2022-07-29T13:51:47.349Z,26.74
2022-07-29T13:54:33.073Z,26.76
2022-07-29T13:57:18.241Z,26.88
2022-07-29T14:00:04.202Z,26.97
2022-07-29T14:02:53.875Z,27.14
2022-07-29T14:05:39.204Z,27.19
2022-07-29T14:08:24.565Z,27.30
2022-07-29T14:11:09.882Z,27.31
2022-07-29T14:13:55.475Z,27.28
2022-07-29T14:16:46.381Z,27.39
2022-07-29T14:19:39.808Z,27.34
2022-07-29T14:22:26.217Z,27.29
2022-07-29T14:25:14.902Z,27.40
2022-07-29T14:28:00.957Z,27.52
2022-07-29T14:30:46.581Z,27.49
2022-07-29T14:33:32.026Z,27.62
2022-07-29T14:36:17.476Z,27.50
2022-07-29T14:39:03.087Z,27.34
2022-07-29T14:41:48.664Z,27.51
2022-07-29T14:44:34.550Z,27.72
2022-07-29T14:47:20.498Z,27.90
2022-07-29T14:50:07.550Z,27.72
2022-07-29T14:52:53.904Z,27.79
2022-07-29T14:55:40.384Z,27.86
2022-07-29T14:58:31.613Z,27.70
2022-07-29T15:01:17.285Z,27.62
2022-07-29T15:04:03.400Z,27.55
2022-07-29T15:06:49.473Z,27.51
2022-07-29T15:09:36.287Z,27.39
2022-07-29T15:12:25.759Z,27.30
2022-07-29T15:15:11.122Z,27.29
2022-07-29T15:17:56.505Z,27.21
2022-07-29T15:20:41.822Z,27.19
2022-07-29T15:23:27.107Z,27.13
2022-07-29T15:26:12.388Z,27.21
2022-07-29T15:28:57.676Z,27.28
2022-07-29T15:31:43.587Z,27.27
2022-07-29T15:34:28.911Z,27.23
2022-07-29T15:37:14.263Z,27.17
2022-07-29T15:40:00.203Z,27.21
2022-07-29T15:42:45.435Z,27.35
2022-07-29T15:45:40.621Z,27.50
2022-07-29T15:48:25.987Z,27.63
2022-07-29T15:51:11.411Z,27.61
2022-07-29T15:53:57.012Z,27.72
2022-07-29T15:56:42.346Z,27.75
2022-07-29T15:59:27.507Z,27.75
2022-07-29T16:02:12.961Z,27.60
2022-07-29T16:04:58.101Z,27.56
2022-07-29T16:07:43.464Z,27.51
2022-07-29T16:10:28.905Z,27.49
2022-07-29T16:13:17.823Z,27.48
2022-07-29T16:16:04.477Z,27.35
2022-07-29T16:18:50.140Z,27.19
2022-07-29T16:21:38.489Z,27.07
2022-07-29T16:24:29.589Z,26.99
2022-07-29T16:27:15.235Z,26.99
2022-07-29T16:30:00.528Z,26.92
2022-07-29T16:32:47.270Z,26.87
2022-07-29T16:35:39.433Z,26.81
2022-07-29T16:38:25.313Z,26.72
2022-07-29T16:41:10.570Z,26.66
2022-07-29T16:43:55.740Z,26.59
2022-07-29T16:46:44.221Z,26.59
2022-07-29T16:49:30.631Z,26.54
2022-07-29T16:52:16.145Z,26.45
2022-07-29T16:55:01.809Z,26.49
2022-07-29T16:57:47.123Z,26.52
2022-07-29T17:00:32.615Z,26.49
2022-07-29T17:03:18.120Z,26.52
2022-07-29T17:06:03.609Z,26.46
2022-07-29T17:08:49.098Z,26.44
2022-07-29T17:11:52.581Z,26.44
2022-07-29T17:14:40.136Z,26.47
2022-07-29T17:17:38.401Z,26.48
2022-07-29T17:20:26.471Z,26.52
2022-07-29T17:23:11.843Z,26.57
2022-07-29T17:25:56.890Z,26.53
2022-07-29T17:28:42.436Z,26.52
2022-07-29T17:31:27.972Z,26.51
2022-07-29T17:34:13.235Z,26.49
2022-07-29T17:36:58.740Z,26.40
2022-07-29T17:39:44.391Z,26.29
2022-07-29T17:42:29.549Z,26.14
2022-07-29T17:45:14.967Z,26.07
2022-07-29T17:48:00.069Z,26.01
2022-07-29T17:50:46.989Z,25.94
2022-07-29T17:53:32.552Z,25.89
2022-07-29T17:56:18.086Z,25.81
2022-07-29T17:59:06.387Z,25.74
2022-07-29T18:01:53.127Z,25.71
2022-07-29T18:04:38.775Z,25.67
2022-07-29T18:07:24.310Z,25.64
2022-07-29T18:10:09.781Z,25.60
2022-07-29T18:12:55.218Z,25.55
2022-07-29T18:15:40.889Z,25.50
2022-07-29T18:18:26.395Z,25.46
2022-07-29T18:21:11.689Z,25.41
2022-07-29T18:23:56.882Z,25.37
2022-07-29T18:26:42.113Z,25.32
2022-07-29T18:29:28.940Z,25.25
2022-07-29T18:32:14.345Z,25.22
2022-07-29T18:35:02.530Z,25.16
2022-07-29T18:38:01.915Z,25.11
2022-07-29T18:40:48.299Z,25.07
2022-07-29T18:43:33.421Z,25.02
2022-07-29T18:46:19.568Z,24.98
2022-07-29T18:49:05.260Z,24.96
2022-07-29T18:51:52.080Z,24.91
2022-07-29T18:54:37.443Z,24.84
2022-07-29T18:57:54.061Z,24.81
2022-07-29T19:00:28.586Z,24.74
2022-07-29T19:03:14.627Z,24.66
2022-07-29T19:06:00.456Z,24.63
2022-07-29T19:08:45.671Z,24.59
2022-07-29T19:11:30.870Z,24.54
2022-07-29T19:14:16.024Z,24.51
2022-07-29T19:17:01.551Z,24.49
2022-07-29T19:19:46.869Z,24.43
2022-07-29T19:22:33.171Z,24.38
2022-07-29T19:25:19.532Z,24.30
2022-07-29T19:28:05.057Z,24.25
2022-07-29T19:30:51.070Z,24.22
2022-07-29T19:33:36.691Z,24.19
2022-07-29T19:36:23.910Z,24.11
2022-07-29T19:39:09.218Z,24.06
2022-07-29T19:41:59.209Z,24.03
2022-07-29T19:44:46.732Z,23.98
2022-07-29T19:47:31.998Z,23.93
2022-07-29T19:50:17.630Z,23.86
2022-07-29T19:53:02.779Z,23.84
2022-07-29T19:55:48.202Z,23.77
2022-07-29T19:58:33.763Z,23.73
2022-07-29T20:01:20.077Z,23.69
2022-07-29T20:04:05.421Z,23.64
2022-07-29T20:06:53.147Z,23.60
2022-07-29T20:09:40.872Z,23.56
2022-07-29T20:12:26.094Z,23.51
2022-07-29T20:15:16.343Z,23.47
2022-07-29T20:18:02.071Z,23.42
2022-07-29T20:20:49.502Z,23.35
2022-07-29T20:23:34.978Z,23.34
2022-07-29T20:26:20.342Z,23.27
2022-07-29T20:29:05.749Z,23.24
2022-07-29T20:31:52.909Z,23.20
2022-07-29T20:34:41.555Z,23.14
2022-07-29T20:37:26.991Z,23.12
2022-07-29T20:40:12.929Z,23.05
2022-07-29T20:42:58.217Z,23.01
2022-07-29T20:45:43.471Z,22.98
2022-07-29T20:48:28.579Z,22.93
2022-07-29T20:51:14.685Z,22.91
2022-07-29T20:54:03.628Z,22.88
2022-07-29T20:56:49.179Z,22.86
2022-07-29T20:59:34.469Z,22.83
2022-07-29T21:02:19.880Z,22.78
2022-07-29T21:05:06.216Z,22.74
2022-07-29T21:07:55.351Z,22.72
2022-07-29T21:10:43.268Z,22.68
2022-07-29T21:13:28.505Z,22.66
2022-07-29T21:16:14.762Z,22.61
2022-07-29T21:19:02.118Z,22.58
2022-07-29T21:21:47.264Z,22.58
2022-07-29T21:24:32.511Z,22.55
2022-07-29T21:27:38.193Z,22.53
2022-07-29T21:30:23.914Z,22.46
2022-07-29T21:33:09.466Z,22.48
2022-07-29T21:39:06.873Z,22.41
2022-07-29T21:41:52.360Z,22.38
2022-07-29T21:44:40.895Z,22.36
2022-07-29T21:47:26.388Z,22.33
2022-07-29T21:50:11.568Z,22.29
2022-07-29T21:52:56.943Z,22.26
2022-07-29T21:55:44.741Z,22.24
2022-07-29T21:58:30.023Z,22.21
2022-07-29T22:01:15.399Z,22.18
2022-07-29T22:04:00.743Z,22.17
2022-07-29T22:06:45.977Z,22.14
2022-07-29T22:09:31.166Z,22.09
2022-07-29T22:12:16.759Z,22.09
2022-07-29T22:15:01.976Z,22.05
2022-07-29T22:17:47.384Z,22.04
2022-07-29T22:20:32.727Z,22.00
2022-07-29T22:23:18.399Z,21.96
2022-07-29T22:26:03.909Z,21.95
2022-07-29T22:28:49.266Z,21.92
2022-07-29T22:31:34.525Z,21.90
2022-07-29T22:34:19.896Z,21.89
2022-07-29T22:37:05.385Z,21.88
2022-07-29T22:39:51.009Z,21.84
2022-07-29T22:42:36.377Z,21.81
2022-07-29T22:45:26.084Z,21.77
2022-07-29T22:48:11.652Z,21.75
2022-07-29T22:50:57.843Z,21.70
2022-07-29T22:53:43.412Z,21.68
2022-07-29T22:56:29.179Z,21.64
2022-07-29T22:59:14.527Z,21.60
2022-07-29T23:01:59.987Z,21.56
2022-07-29T23:04:45.747Z,21.53
2022-07-29T23:07:30.904Z,21.51
2022-07-29T23:10:16.501Z,21.48
2022-07-29T23:13:01.855Z,21.43
2022-07-29T23:15:47.401Z,21.40
2022-07-29T23:18:32.385Z,21.35
2022-07-29T23:21:20.768Z,21.34
2022-07-29T23:24:06.354Z,21.28
2022-07-29T23:26:56.462Z,21.25
2022-07-29T23:29:44.363Z,21.22
2022-07-29T23:32:30.148Z,21.19
2022-07-29T23:35:15.560Z,21.18
2022-07-29T23:38:01.085Z,21.14
2022-07-29T23:40:46.599Z,21.09
2022-07-29T23:43:31.779Z,21.08
2022-07-29T23:46:16.992Z,21.05
2022-07-29T23:49:09.718Z,21.02
2022-07-29T23:51:55.309Z,21.00
2022-07-29T23:54:40.696Z,20.99
2022-07-29T23:57:26.443Z,20.95
